Time;durP1;ratioP1;P1;durP2;ratioP2;P2;SDS_P1;SDS_P2;PMS_P1;PMS_P2;Temp;Humidity;BMP_temperature;BMP_pressure;BME280_temperature;BME280_humidity;BME280_pressure;Samples;Min_cycle;Max_cycle;Signal;HPM_P1;HPM_P2
2023/03/25 00:00:06;;;;;;;11.02;9.27;;;14.40;96.70;;;;;;5066379;28;20571;-69
2023/03/25 00:02:33;;;;;;;12.82;9.93;;;14.40;96.70;;;;;;5085448;28;20044;-69
2023/03/25 00:05:02;;;;;;;11.82;9.65;;;14.40;96.70;;;;;;5083596;28;20544;-70
2023/03/25 00:07:30;;;;;;;11.73;9.48;;;14.40;96.70;;;;;;5080152;28;20036;-70
2023/03/25 00:09:58;;;;;;;12.00;10.02;;;14.40;96.70;;;;;;5084200;28;20421;-70
2023/03/25 00:12:26;;;;;;;11.77;9.30;;;14.40;96.70;;;;;;5081775;28;20611;-70
2023/03/25 00:14:54;;;;;;;11.55;9.35;;;14.40;96.70;;;;;;5084163;28;20044;-70
2023/03/25 00:17:30;;;;;;;11.73;8.60;;;14.40;96.70;;;;;;5081039;28;20434;-70
2023/03/25 00:20:04;;;;;;;13.45;9.13;;;14.40;96.70;;;;;;5083220;28;20101;-70
2023/03/25 00:22:32;;;;;;;9.43;8.43;;;14.40;96.70;;;;;;5079095;28;20082;-70
2023/03/25 00:25:00;;;;;;;7.78;6.40;;;14.40;96.70;;;;;;5083545;28;20139;-70
2023/03/25 00:27:28;;;;;;;6.45;5.80;;;14.30;96.70;;;;;;5079092;28;20040;-70
2023/03/25 00:29:56;;;;;;;5.90;5.35;;;14.20;96.70;;;;;;5083601;28;20067;-71
2023/03/25 00:32:28;;;;;;;6.97;5.05;;;14.20;96.70;;;;;;5084876;28;20056;-70
2023/03/25 00:34:56;;;;;;;6.55;4.78;;;14.10;96.70;;;;;;5080479;28;20528;-70
2023/03/25 00:37:24;;;;;;;6.35;5.00;;;14.10;96.70;;;;;;5083091;28;20047;-70
2023/03/25 00:39:52;;;;;;;6.25;5.18;;;14.10;96.70;;;;;;5065791;28;20051;-70
2023/03/25 00:42:24;;;;;;;6.55;5.00;;;14.10;96.70;;;;;;5081566;28;20059;-69
2023/03/25 00:44:53;;;;;;;6.28;5.03;;;14.10;96.70;;;;;;5061676;28;20051;-69
2023/03/25 00:47:22;;;;;;;5.65;4.93;;;14.10;96.70;;;;;;5086142;28;20451;-69
2023/03/25 00:49:51;;;;;;;6.10;4.28;;;14.10;96.70;;;;;;5083422;28;20058;-69
2023/03/25 00:52:21;;;;;;;6.03;4.78;;;14.10;96.70;;;;;;5082690;28;20656;-69
2023/03/25 00:54:51;;;;;;;7.00;4.90;;;14.10;96.70;;;;;;5082775;28;20052;-69
2023/03/25 00:57:21;;;;;;;5.53;4.75;;;14.00;96.70;;;;;;5082468;28;20113;-70
2023/03/25 00:59:49;;;;;;;7.55;4.80;;;14.00;96.70;;;;;;5080765;28;20039;-69
2023/03/25 01:02:20;;;;;;;6.45;4.53;;;14.00;96.70;;;;;;5079954;28;20563;-69
2023/03/25 01:04:48;;;;;;;5.43;4.20;;;13.90;96.70;;;;;;5079707;28;20462;-69
2023/03/25 01:07:19;;;;;;;5.15;4.35;;;13.90;96.70;;;;;;5084346;28;20435;-70
2023/03/25 01:09:47;;;;;;;4.85;4.18;;;13.90;96.70;;;;;;5080987;28;20048;-69
2023/03/25 01:12:17;;;;;;;7.65;4.65;;;13.80;96.70;;;;;;5084095;28;20067;-69
2023/03/25 01:14:46;;;;;;;6.25;4.55;;;13.80;96.70;;;;;;5082965;28;20050;-69
2023/03/25 01:17:14;;;;;;;5.68;4.53;;;13.80;96.70;;;;;;5081130;28;20125;-69
2023/03/25 01:19:42;;;;;;;5.25;4.00;;;13.80;96.70;;;;;;5084368;28;20039;-70
2023/03/25 01:22:10;;;;;;;5.15;3.67;;;13.70;96.70;;;;;;5081495;28;20028;-69
2023/03/25 01:24:39;;;;;;;4.90;3.80;;;13.60;96.70;;;;;;5082328;28;20106;-69
2023/03/25 01:27:07;;;;;;;4.35;3.30;;;13.60;96.70;;;;;;5085226;28;20427;-69
2023/03/25 01:29:35;;;;;;;3.55;3.25;;;13.60;96.70;;;;;;5083659;28;20040;-69
2023/03/25 01:32:04;;;;;;;4.47;3.17;;;13.60;96.70;;;;;;5083553;28;20044;-69
2023/03/25 01:34:32;;;;;;;4.13;3.00;;;13.60;96.70;;;;;;5080893;28;20072;-69
2023/03/25 01:37:00;;;;;;;3.78;3.30;;;13.70;96.70;;;;;;5066001;28;20040;-69
2023/03/25 01:39:28;;;;;;;3.83;3.08;;;13.80;96.70;;;;;;5078101;28;20101;-69
2023/03/25 01:41:57;;;;;;;4.95;3.20;;;13.80;96.70;;;;;;5083292;28;20406;-69
2023/03/25 01:45:02;;;;;;;4.95;2.97;;;13.70;96.70;;;;;;5086154;28;20626;-69
2023/03/25 01:47:30;;;;;;;3.83;3.10;;;13.70;96.70;;;;;;5078567;28;20052;-69
2023/03/25 01:49:57;;;;;;;4.53;2.75;;;13.60;96.70;;;;;;5076562;28;20756;-70
2023/03/25 01:52:28;;;;;;;4.65;2.80;;;13.60;96.70;;;;;;5080826;28;20461;-69
2023/03/25 01:54:57;;;;;;;5.32;3.15;;;13.60;96.70;;;;;;5074494;28;20080;-69
2023/03/25 01:57:29;;;;;;;4.63;2.88;;;13.60;96.70;;;;;;5074729;28;20089;-69
2023/03/25 01:59:57;;;;;;;3.33;3.03;;;13.60;96.70;;;;;;5077093;28;20085;-69
2023/03/25 02:02:33;;;;;;;7.15;3.15;;;13.60;96.70;;;;;;5078477;28;20194;-69
2023/03/25 02:05:06;;;;;;;3.80;2.90;;;13.50;96.70;;;;;;5078161;28;20054;-69
2023/03/25 02:07:41;;;;;;;4.78;2.70;;;13.60;96.70;;;;;;5077703;28;20054;-70
2023/03/25 02:10:11;;;;;;;7.53;5.35;;;13.60;96.70;;;;;;5077509;28;20039;-70
2023/03/25 02:12:44;;;;;;;6.35;3.92;;;13.50;96.70;;;;;;5074435;28;20816;-70
2023/03/25 02:15:15;;;;;;;4.13;3.42;;;13.40;96.70;;;;;;5075282;28;20697;-71
2023/03/25 02:18:07;;;;;;;4.53;3.03;;;13.30;96.70;;;;;;5072165;28;20044;-70
2023/03/25 02:21:01;;;;;;;3.25;2.95;;;13.30;96.70;;;;;;5081674;28;20571;-70
2023/03/25 02:23:58;;;;;;;3.80;2.67;;;13.40;96.70;;;;;;5079472;28;20150;-70
2023/03/25 02:26:55;;;;;;;4.68;2.97;;;13.50;96.70;;;;;;5074798;28;20064;-70
2023/03/25 02:29:39;;;;;;;3.65;2.60;;;13.50;96.70;;;;;;5076904;28;20043;-70
2023/03/25 02:32:23;;;;;;;3.95;2.78;;;13.60;96.70;;;;;;5074605;28;20273;-70
2023/03/25 02:35:13;;;;;;;2.63;2.40;;;13.70;96.70;;;;;;5076466;28;20098;-70
2023/03/25 02:38:06;;;;;;;2.97;2.55;;;13.60;96.70;;;;;;5075692;28;20075;-70
2023/03/25 02:40:45;;;;;;;4.75;2.50;;;13.60;96.70;;;;;;5076766;28;20047;-70
2023/03/25 02:43:17;;;;;;;5.65;2.70;;;13.50;96.70;;;;;;5081191;28;20097;-70
2023/03/25 02:45:50;;;;;;;6.18;3.05;;;13.50;96.70;;;;;;5077454;28;20052;-70
2023/03/25 02:48:24;;;;;;;3.80;2.92;;;13.60;96.70;;;;;;5077961;28;20036;-70
2023/03/25 02:50:55;;;;;;;3.53;2.90;;;13.70;96.70;;;;;;5074019;28;20133;-70
2023/03/25 02:53:29;;;;;;;5.57;3.15;;;13.70;96.70;;;;;;5075197;28;20064;-70
2023/03/25 02:56:04;;;;;;;4.63;3.22;;;13.70;96.70;;;;;;5074924;28;20048;-70
2023/03/25 02:58:33;;;;;;;3.67;3.35;;;13.70;96.70;;;;;;5074813;28;20451;-71
2023/03/25 03:01:01;;;;;;;4.80;3.17;;;13.70;96.70;;;;;;5065195;28;20047;-70
2023/03/25 03:03:29;;;;;;;4.30;3.28;;;13.70;96.70;;;;;;5075672;28;20036;-71
2023/03/25 03:06:04;;;;;;;4.13;2.90;;;13.70;96.70;;;;;;5059035;28;20037;-71
2023/03/25 03:09:09;;;;;;;3.60;3.30;;;13.70;96.70;;;;;;5073908;28;20040;-70
2023/03/25 03:11:46;;;;;;;4.63;3.40;;;13.70;96.70;;;;;;5069911;28;20051;-70
2023/03/25 03:14:46;;;;;;;4.63;3.53;;;13.70;96.70;;;;;;5075162;28;20044;-70
2023/03/25 03:17:23;;;;;;;4.35;3.00;;;13.80;96.70;;;;;;5078694;28;20465;-71
2023/03/25 03:19:55;;;;;;;4.85;3.47;;;13.80;96.70;;;;;;5076210;28;20032;-71
2023/03/25 03:22:37;;;;;;;5.00;3.70;;;13.80;96.70;;;;;;5078962;28;20071;-70
2023/03/25 03:25:12;;;;;;;4.50;4.10;;;13.80;96.70;;;;;;5078562;28;20133;-70
2023/03/25 03:27:48;;;;;;;5.05;4.55;;;13.80;96.70;;;;;;5074355;28;20625;-71
2023/03/25 03:30:26;;;;;;;6.78;4.80;;;13.70;96.70;;;;;;5077202;28;20056;-70
2023/03/25 03:33:01;;;;;;;5.95;5.03;;;13.80;96.70;;;;;;5077308;28;20044;-70
2023/03/25 03:35:33;;;;;;;5.63;5.10;;;13.80;96.70;;;;;;5075426;28;20078;-70
2023/03/25 03:38:08;;;;;;;5.57;5.07;;;13.80;96.70;;;;;;5077697;28;20059;-70
2023/03/25 03:40:40;;;;;;;6.95;5.47;;;13.70;96.70;;;;;;5075098;28;20115;-70
2023/03/25 03:43:15;;;;;;;5.57;5.05;;;13.70;96.70;;;;;;5079885;28;20040;-69
2023/03/25 03:45:47;;;;;;;7.13;5.40;;;13.80;96.70;;;;;;5083507;28;20044;-70
2023/03/25 03:48:21;;;;;;;5.85;5.22;;;13.70;96.70;;;;;;5077860;28;20099;-70
2023/03/25 03:50:53;;;;;;;5.95;5.35;;;13.70;96.70;;;;;;5079385;28;20059;-72
2023/03/25 03:53:27;;;;;;;6.85;5.78;;;13.70;96.70;;;;;;5076380;28;20118;-70
2023/03/25 03:56:02;;;;;;;8.63;5.78;;;13.80;96.70;;;;;;5072196;28;20059;-70
2023/03/25 03:58:35;;;;;;;5.57;4.88;;;13.80;96.70;;;;;;5070121;28;20334;-70
2023/03/25 04:01:10;;;;;;;8.10;5.53;;;13.70;96.70;;;;;;5074394;28;20051;-70
2023/03/25 04:03:45;;;;;;;6.10;5.07;;;13.80;96.70;;;;;;5058010;28;20052;-70
2023/03/25 04:06:21;;;;;;;7.10;5.35;;;13.80;96.70;;;;;;5074497;28;21785;-70
2023/03/25 04:08:57;;;;;;;6.03;5.37;;;13.80;96.70;;;;;;5074955;28;20052;-70
2023/03/25 04:11:28;;;;;;;;;;;13.70;96.70;;;;;;5077563;28;20048;-70
2023/03/25 04:14:01;;;;;;;7.50;5.85;;;13.80;96.70;;;;;;5073693;28;19959;-69
2023/03/25 04:16:31;;;;;;;6.30;5.57;;;13.80;96.70;;;;;;5074457;28;20043;-69
2023/03/25 04:19:04;;;;;;;6.28;5.63;;;13.70;96.70;;;;;;5070716;28;20036;-70
2023/03/25 04:21:33;;;;;;;6.40;5.40;;;13.70;96.70;;;;;;5094224;27;20113;-73
2023/03/25 04:24:01;;;;;;;6.57;5.82;;;13.70;96.70;;;;;;5076512;28;20048;-70
2023/03/25 04:26:32;;;;;;;6.95;5.82;;;13.70;96.70;;;;;;5075913;28;20040;-70
2023/03/25 04:29:03;;;;;;;7.78;5.18;;;13.70;96.70;;;;;;5078021;28;20055;-70
2023/03/25 04:31:32;;;;;;;5.88;5.30;;;13.80;96.70;;;;;;5077836;28;20412;-70
2023/03/25 04:34:01;;;;;;;8.75;5.95;;;13.80;96.70;;;;;;5079708;28;20058;-70
2023/03/25 04:36:36;;;;;;;8.10;5.40;;;13.80;96.70;;;;;;5081442;28;20040;-70
2023/03/25 04:39:06;;;;;;;8.13;6.03;;;13.80;96.70;;;;;;5078019;28;20531;-70
2023/03/25 04:41:34;;;;;;;6.68;5.45;;;13.80;96.70;;;;;;5076927;28;20036;-70
2023/03/25 04:44:06;;;;;;;6.15;5.55;;;13.80;96.70;;;;;;5080687;28;20113;-70
2023/03/25 04:46:36;;;;;;;6.38;5.72;;;13.80;96.70;;;;;;5079217;28;20042;-71
2023/03/25 04:49:05;;;;;;;6.15;5.47;;;13.80;96.70;;;;;;5081270;28;20062;-70
2023/03/25 04:51:33;;;;;;;7.10;5.60;;;13.80;96.70;;;;;;5063225;28;20047;-70
2023/03/25 04:54:02;;;;;;;7.05;6.28;;;13.80;96.70;;;;;;5080941;28;20043;-70
2023/03/25 04:56:30;;;;;;;7.18;5.82;;;13.80;96.70;;;;;;5075831;28;20052;-70
2023/03/25 04:58:59;;;;;;;6.50;5.90;;;13.80;96.70;;;;;;5077488;28;20555;-70
2023/03/25 05:01:30;;;;;;;8.75;6.38;;;13.80;96.70;;;;;;5077396;28;20048;-71
2023/03/25 05:04:06;;;;;;;6.68;5.97;;;13.90;96.70;;;;;;5078127;28;20493;-69
2023/03/25 05:06:37;;;;;;;6.72;6.03;;;13.90;96.70;;;;;;5077774;28;20052;-70
2023/03/25 05:09:07;;;;;;;7.25;6.47;;;13.90;96.70;;;;;;5077576;28;20733;-70
2023/03/25 05:11:38;;;;;;;6.78;6.15;;;13.80;96.70;;;;;;5079289;28;20081;-71
2023/03/25 05:14:07;;;;;;;6.88;6.18;;;13.80;96.70;;;;;;5077244;28;20420;-70
2023/03/25 05:16:37;;;;;;;7.40;6.35;;;13.80;96.70;;;;;;5077285;28;20043;-70
2023/03/25 05:19:06;;;;;;;6.85;5.65;;;13.80;96.70;;;;;;5078087;28;20125;-70
2023/03/25 05:21:37;;;;;;;6.78;5.90;;;13.80;96.70;;;;;;5091058;28;20067;-71
2023/03/25 05:24:09;;;;;;;5.78;5.28;;;13.80;96.70;;;;;;5074784;28;20047;-70
2023/03/25 05:26:38;;;;;;;7.45;5.32;;;13.80;96.70;;;;;;5079694;28;20051;-70
2023/03/25 05:29:09;;;;;;;6.22;5.10;;;13.80;96.70;;;;;;5074803;28;20080;-70
2023/03/25 05:31:40;;;;;;;7.28;4.82;;;13.80;96.70;;;;;;5075056;28;20044;-70
2023/03/25 05:34:08;;;;;;;6.45;5.20;;;13.70;96.70;;;;;;5081206;28;20047;-70
2023/03/25 05:36:36;;;;;;;6.85;5.70;;;13.80;96.70;;;;;;5073916;28;20048;-70
2023/03/25 05:39:05;;;;;;;5.22;4.40;;;13.70;96.70;;;;;;5074802;28;20044;-70
2023/03/25 05:41:37;;;;;;;5.07;4.45;;;13.70;96.70;;;;;;5075580;28;20387;-70
2023/03/25 05:44:07;;;;;;;6.72;5.40;;;13.70;96.70;;;;;;5073706;28;20036;-70
2023/03/25 05:46:35;;;;;;;5.38;4.88;;;13.70;96.70;;;;;;5076178;28;20494;-70
2023/03/25 05:49:05;;;;;;;7.40;4.70;;;13.80;96.70;;;;;;5077052;28;20044;-70
2023/03/25 05:51:36;;;;;;;4.50;3.95;;;13.80;96.70;;;;;;5080971;28;20120;-71
2023/03/25 05:54:09;;;;;;;5.40;4.85;;;13.80;96.70;;;;;;5077833;28;20070;-70
2023/03/25 05:56:40;;;;;;;5.95;4.53;;;13.90;96.70;;;;;;5077468;28;20133;-69
2023/03/25 05:59:09;;;;;;;6.10;4.70;;;13.90;96.70;;;;;;5074091;28;20127;-69
2023/03/25 06:01:37;;;;;;;5.30;4.40;;;13.80;96.70;;;;;;5070613;28;20036;-70
2023/03/25 06:04:08;;;;;;;6.70;5.30;;;13.80;96.70;;;;;;5076925;28;20070;-70
2023/03/25 06:06:38;;;;;;;6.88;4.93;;;13.80;96.70;;;;;;5077300;28;20052;-70
2023/03/25 06:09:06;;;;;;;5.63;5.03;;;13.70;96.70;;;;;;5074178;28;20488;-70
2023/03/25 06:11:38;;;;;;;7.20;5.57;;;13.80;96.70;;;;;;5079406;28;20456;-70
2023/03/25 06:14:06;;;;;;;7.53;6.07;;;13.80;96.70;;;;;;5075351;28;20631;-70
2023/03/25 06:16:34;;;;;;;6.00;5.43;;;13.80;96.70;;;;;;5074179;28;20044;-70
2023/03/25 06:19:02;;;;;;;8.65;5.85;;;13.90;96.70;;;;;;5080541;28;20114;-70
2023/03/25 06:21:35;;;;;;;6.95;6.28;;;13.90;96.70;;;;;;5063266;28;20036;-69
2023/03/25 06:24:04;;;;;;;9.38;6.72;;;13.90;96.70;;;;;;5074690;28;20040;-70
2023/03/25 06:26:32;;;;;;;8.52;6.97;;;13.90;96.70;;;;;;5076475;28;20055;-70
2023/03/25 06:29:02;;;;;;;7.40;6.60;;;14.00;96.70;;;;;;5070022;28;20049;-70
2023/03/25 06:31:32;;;;;;;9.48;6.43;;;14.00;96.70;;;;;;5078213;28;20043;-70
2023/03/25 06:34:01;;;;;;;9.93;6.80;;;14.10;96.70;;;;;;5075815;28;20854;-70
2023/03/25 06:36:30;;;;;;;9.35;6.55;;;14.20;96.70;;;;;;5080005;28;20634;-70
2023/03/25 06:38:59;;;;;;;7.57;6.03;;;14.20;96.70;;;;;;5080997;28;20042;-70
2023/03/25 06:41:28;;;;;;;7.60;5.60;;;14.30;96.70;;;;;;5072702;28;20040;-71
2023/03/25 06:44:10;;;;;;;7.20;5.47;;;14.30;96.70;;;;;;5084516;28;20067;-70
2023/03/25 06:47:01;;;;;;;8.05;6.15;;;14.40;96.70;;;;;;5080943;28;20141;-70
2023/03/25 06:49:32;;;;;;;19.75;13.52;;;14.50;96.70;;;;;;5081912;28;20035;-70
2023/03/25 06:52:00;;;;;;;29.10;20.52;;;14.60;96.70;;;;;;5086589;28;20071;-70
2023/03/25 06:54:29;;;;;;;39.80;26.60;;;14.70;96.70;;;;;;5082260;28;20047;-70
2023/03/25 06:56:57;;;;;;;30.08;21.30;;;14.70;96.70;;;;;;5075444;28;20064;-70
2023/03/25 06:59:25;;;;;;;16.85;12.45;;;14.80;96.70;;;;;;5098640;28;20044;-70
2023/03/25 07:01:53;;;;;;;11.23;8.38;;;14.80;96.70;;;;;;5082969;28;20048;-70
2023/03/25 07:04:21;;;;;;;11.73;8.77;;;14.80;96.70;;;;;;5086469;28;20603;-72
2023/03/25 07:06:49;;;;;;;11.35;9.48;;;14.70;96.70;;;;;;5056374;28;20044;-70
2023/03/25 07:09:17;;;;;;;16.75;12.23;;;14.70;96.70;;;;;;5086975;28;20126;-70
2023/03/25 07:11:46;;;;;;;18.13;15.00;;;14.60;96.70;;;;;;5075966;28;20406;-70
2023/03/25 07:14:14;;;;;;;18.55;13.90;;;14.60;96.70;;;;;;5081364;28;20044;-70
2023/03/25 07:16:42;;;;;;;15.57;12.57;;;14.70;96.70;;;;;;5074484;28;20131;-71
2023/03/25 07:19:10;;;;;;;15.25;11.32;;;14.70;96.70;;;;;;5087249;28;20498;-71
2023/03/25 07:21:37;;;;;;;14.15;11.95;;;14.80;96.70;;;;;;5080634;28;20097;-70
2023/03/25 07:24:06;;;;;;;13.82;10.68;;;14.80;96.70;;;;;;5079909;28;20072;-70
2023/03/25 07:26:34;;;;;;;11.60;9.90;;;14.80;96.70;;;;;;5074202;28;20036;-70
2023/03/25 07:29:03;;;;;;;11.88;9.13;;;14.90;96.70;;;;;;5077392;28;20040;-72
2023/03/25 07:31:31;;;;;;;10.07;8.25;;;15.00;96.70;;;;;;5081003;28;20125;-70
2023/03/25 07:33:59;;;;;;;9.20;7.28;;;15.10;96.70;;;;;;5081412;28;20105;-71
2023/03/25 07:36:27;;;;;;;8.68;6.43;;;15.20;96.70;;;;;;5087995;28;20457;-70
2023/03/25 07:38:55;;;;;;;9.52;6.40;;;15.20;96.70;;;;;;5083655;28;20051;-70
2023/03/25 07:41:23;;;;;;;7.28;5.60;;;15.30;96.70;;;;;;5087725;28;20096;-70
2023/03/25 07:44:05;;;;;;;8.02;4.90;;;15.50;96.70;;;;;;5085008;28;20039;-71
2023/03/25 07:46:35;;;;;;;8.23;5.75;;;15.70;96.70;;;;;;5079019;28;20076;-71
2023/03/25 07:49:04;;;;;;;8.20;4.70;;;15.90;96.70;;;;;;5081627;28;20418;-72
2023/03/25 07:51:33;;;;;;;8.05;4.05;;;15.90;96.70;;;;;;5081075;28;20040;-71
2023/03/25 07:54:01;;;;;;;5.28;4.18;;;16.00;96.70;;;;;;5073586;28;20072;-70
2023/03/25 07:56:32;;;;;;;5.72;3.53;;;16.10;96.70;;;;;;5095832;28;20074;-71
2023/03/25 07:59:00;;;;;;;8.98;3.45;;;16.10;96.70;;;;;;5088747;28;20047;-72
2023/03/25 08:01:29;;;;;;;6.60;2.85;;;16.10;96.70;;;;;;5079397;28;20074;-71
2023/03/25 08:03:57;;;;;;;9.43;3.13;;;16.20;96.70;;;;;;5090954;28;20054;-71
2023/03/25 08:06:25;;;;;;;7.93;3.50;;;16.20;96.70;;;;;;5084625;28;20093;-72
2023/03/25 08:08:54;;;;;;;11.02;4.18;;;16.30;96.70;;;;;;5086406;28;20097;-70
2023/03/25 08:11:22;;;;;;;7.78;3.58;;;16.30;96.70;;;;;;5094476;28;20044;-71
2023/03/25 08:13:50;;;;;;;6.40;2.65;;;16.30;96.70;;;;;;5082899;28;20112;-71
2023/03/25 08:16:18;;;;;;;8.18;4.15;;;16.30;96.70;;;;;;5084844;28;20047;-71
2023/03/25 08:18:51;;;;;;;12.52;5.07;;;16.40;96.70;;;;;;5091645;28;20044;-71
2023/03/25 08:21:26;;;;;;;10.95;4.85;;;16.50;96.70;;;;;;5083315;28;21374;-72
2023/03/25 08:24:01;;;;;;;9.75;4.20;;;16.60;96.70;;;;;;5083182;28;20417;-71
2023/03/25 08:26:29;;;;;;;9.60;4.57;;;16.60;96.70;;;;;;5083653;28;20567;-71
2023/03/25 08:28:58;;;;;;;12.63;3.85;;;16.70;96.70;;;;;;5084226;28;20051;-70
2023/03/25 08:31:29;;;;;;;13.82;5.55;;;16.70;96.70;;;;;;5074525;28;20040;-71
2023/03/25 08:34:00;;;;;;;9.75;4.10;;;16.70;96.70;;;;;;5083357;28;20048;-70
2023/03/25 08:36:28;;;;;;;9.32;4.32;;;16.80;96.70;;;;;;5082956;28;20113;-70
2023/03/25 08:38:57;;;;;;;11.73;4.18;;;16.90;96.70;;;;;;5083063;28;20090;-70
2023/03/25 08:41:24;;;;;;;8.63;3.88;;;17.10;96.70;;;;;;5093518;28;20072;-71
2023/03/25 08:43:52;;;;;;;8.73;3.25;;;17.00;96.70;;;;;;5092591;28;20043;-71
2023/03/25 08:46:20;;;;;;;11.13;3.70;;;17.00;96.70;;;;;;5082578;28;20036;-71
2023/03/25 08:48:48;;;;;;;13.90;3.38;;;17.00;96.70;;;;;;5092817;28;20047;-70
2023/03/25 08:51:18;;;;;;;10.05;2.40;;;17.20;96.70;;;;;;5090456;28;20388;-72
2023/03/25 08:53:46;;;;;;;10.23;2.67;;;17.10;96.70;;;;;;5100910;28;20126;-71
2023/03/25 08:56:14;;;;;;;11.23;2.78;;;17.00;96.70;;;;;;5100779;28;20051;-71
2023/03/25 08:58:42;;;;;;;7.68;2.08;;;17.00;96.70;;;;;;5099468;28;20044;-71
2023/03/25 09:01:10;;;;;;;10.38;2.88;;;17.00;96.70;;;;;;5083338;28;20114;-70
2023/03/25 09:03:39;;;;;;;10.75;2.50;;;17.10;96.70;;;;;;5082277;28;20056;-70
2023/03/25 09:06:08;;;;;;;10.48;2.42;;;17.10;96.70;;;;;;5082363;28;20121;-71
2023/03/25 09:08:38;;;;;;;12.90;3.03;;;17.20;96.70;;;;;;5078234;28;20055;-71
2023/03/25 09:11:06;;;;;;;9.82;2.50;;;17.10;96.70;;;;;;5079134;28;20041;-71
2023/03/25 09:13:33;;;;;;;12.30;2.75;;;17.20;96.70;;;;;;5075352;28;20116;-70
2023/03/25 09:16:02;;;;;;;11.68;2.28;;;17.20;96.70;;;;;;5074217;28;20041;-70
2023/03/25 09:18:30;;;;;;;11.23;2.53;;;17.40;96.70;;;;;;5093021;28;20497;-71
2023/03/25 09:20:59;;;;;;;14.25;2.65;;;17.60;96.70;;;;;;5102209;28;20051;-71
2023/03/25 09:23:27;;;;;;;8.68;2.00;;;17.70;96.70;;;;;;5076901;28;20025;-70
2023/03/25 09:26:00;;;;;;;9.85;2.13;;;17.80;96.70;;;;;;5069556;28;20422;-70
2023/03/25 09:28:28;;;;;;;8.93;1.90;;;17.90;96.70;;;;;;5071214;28;20040;-70
2023/03/25 09:30:56;;;;;;;11.48;2.80;;;17.70;96.70;;;;;;5068235;28;20551;-70
2023/03/25 09:33:26;;;;;;;13.88;2.40;;;17.80;96.70;;;;;;5076973;28;20044;-70
2023/03/25 09:35:54;;;;;;;7.78;2.55;;;17.80;96.70;;;;;;5082304;28;20524;-70
2023/03/25 09:38:22;;;;;;;11.10;2.97;;;17.90;96.70;;;;;;5096240;28;20039;-70
2023/03/25 09:40:50;;;;;;;12.93;2.20;;;17.80;96.70;;;;;;5089840;28;20126;-70
2023/03/25 09:43:35;;;;;;;7.38;1.88;;;17.90;96.70;;;;;;5094113;28;20506;-70
2023/03/25 09:46:04;;;;;;;9.15;2.03;;;18.00;96.70;;;;;;5064726;28;20416;-71
2023/03/25 09:48:36;;;;;;;8.90;2.13;;;18.00;96.70;;;;;;5082858;28;20055;-71
2023/03/25 09:51:05;;;;;;;11.05;2.30;;;17.80;96.70;;;;;;5093247;28;20436;-70
2023/03/25 09:53:39;;;;;;;8.60;2.00;;;17.70;96.70;;;;;;5099918;28;20036;-69
2023/03/25 09:56:13;;;;;;;11.00;1.88;;;17.90;96.70;;;;;;5087010;28;20048;-70
2023/03/25 09:58:45;;;;;;;10.35;2.35;;;18.00;96.70;;;;;;5084114;28;20152;-70
2023/03/25 10:01:29;;;;;;;10.32;2.25;;;18.10;96.70;;;;;;5088020;28;20040;-71
2023/03/25 10:04:14;;;;;;;13.57;2.45;;;18.20;96.70;;;;;;5081335;28;20550;-70
2023/03/25 10:06:51;;;;;;;8.70;2.20;;;18.20;96.70;;;;;;5073491;28;20464;-70
2023/03/25 10:09:32;;;;;;;10.02;2.47;;;18.20;96.70;;;;;;5074692;28;20059;-70
2023/03/25 10:12:07;;;;;;;7.65;2.05;;;18.40;96.70;;;;;;5076282;28;20049;-71
2023/03/25 10:14:50;;;;;;;9.00;2.20;;;18.50;96.70;;;;;;5074475;28;20044;-70
2023/03/25 10:17:27;;;;;;;11.07;2.05;;;18.50;96.70;;;;;;5073261;28;20563;-69
2023/03/25 10:19:58;;;;;;;;;;;18.70;96.70;;;;;;5075450;28;20064;-70
2023/03/25 10:22:32;;;;;;;13.63;2.33;;;18.70;96.70;;;;;;5078616;28;19946;-71
2023/03/25 10:25:03;;;;;;;7.57;2.05;;;18.70;96.70;;;;;;5077115;28;20036;-71
2023/03/25 10:27:36;;;;;;;12.00;2.55;;;18.80;96.70;;;;;;5073012;28;20552;-70
2023/03/25 10:30:12;;;;;;;10.27;2.25;;;18.80;96.70;;;;;;5100500;27;20059;-70
2023/03/25 10:32:44;;;;;;;10.32;1.90;;;18.60;96.70;;;;;;5082936;28;20047;-70
2023/03/25 10:35:19;;;;;;;9.07;2.50;;;18.60;96.70;;;;;;5087648;28;20044;-70
2023/03/25 10:37:50;;;;;;;10.68;2.30;;;18.60;96.70;;;;;;5085862;28;20115;-69
2023/03/25 10:40:24;;;;;;;9.27;2.25;;;18.60;96.70;;;;;;5082398;28;20551;-70
2023/03/25 10:43:11;;;;;;;7.97;1.92;;;18.70;96.70;;;;;;5099552;28;20073;-70
2023/03/25 10:45:42;;;;;;;8.50;1.70;;;18.70;96.70;;;;;;5084430;28;20052;-71
2023/03/25 10:48:13;;;;;;;12.82;2.30;;;18.70;96.70;;;;;;5079921;28;20143;-71
2023/03/25 10:50:43;;;;;;;9.70;2.05;;;18.80;96.70;;;;;;5081541;28;20044;-70
2023/03/25 10:53:20;;;;;;;10.68;1.90;;;19.00;96.70;;;;;;5078264;28;20036;-70
2023/03/25 10:55:52;;;;;;;7.95;1.73;;;18.90;96.70;;;;;;5076927;28;20051;-69
2023/03/25 10:58:20;;;;;;;7.93;1.67;;;18.90;96.70;;;;;;5076347;28;20039;-71
2023/03/25 11:00:49;;;;;;;12.70;2.20;;;19.00;96.70;;;;;;5078319;28;20047;-72
2023/03/25 11:03:23;;;;;;;9.60;1.95;;;19.00;96.70;;;;;;5060987;28;20044;-71
2023/03/25 11:05:52;;;;;;;10.32;2.08;;;19.20;96.70;;;;;;5077433;28;20050;-71
2023/03/25 11:08:21;;;;;;;9.18;2.25;;;19.30;96.70;;;;;;5080241;28;20126;-72
2023/03/25 11:10:58;;;;;;;10.02;2.47;;;19.20;96.70;;;;;;5086482;28;20509;-71
2023/03/25 11:13:31;;;;;;;9.90;2.35;;;19.30;96.70;;;;;;5089295;28;20103;-70
2023/03/25 11:16:02;;;;;;;11.48;1.80;;;19.30;96.70;;;;;;5079855;28;20151;-70
2023/03/25 11:18:36;;;;;;;11.32;2.55;;;19.10;96.70;;;;;;5072758;28;20052;-70
2023/03/25 11:21:10;;;;;;;8.37;2.27;;;19.00;96.70;;;;;;5072758;28;20592;-70
2023/03/25 11:23:43;;;;;;;9.85;2.05;;;19.20;96.70;;;;;;5074216;28;20151;-72
2023/03/25 11:26:17;;;;;;;13.18;2.15;;;19.20;96.70;;;;;;5074992;28;20051;-72
2023/03/25 11:28:47;;;;;;;11.00;2.83;;;19.30;96.70;;;;;;5073883;28;20148;-73
2023/03/25 11:31:19;;;;;;;9.48;2.00;;;19.20;96.70;;;;;;5076936;28;20044;-71
2023/03/25 11:34:04;;;;;;;10.45;2.55;;;19.10;96.70;;;;;;5078771;28;20520;-70
2023/03/25 11:36:34;;;;;;;9.32;1.73;;;19.20;96.70;;;;;;5081621;28;20120;-70
2023/03/25 11:39:15;;;;;;;9.07;2.00;;;19.40;96.70;;;;;;5077936;28;20440;-70
2023/03/25 11:41:44;;;;;;;7.18;1.92;;;19.60;96.70;;;;;;5078243;28;20067;-71
2023/03/25 11:44:22;;;;;;;8.23;2.13;;;19.40;96.70;;;;;;5080841;28;20048;-72
2023/03/25 11:46:55;;;;;;;7.97;1.73;;;19.40;96.70;;;;;;5081092;28;20122;-72
2023/03/25 11:49:25;;;;;;;6.88;1.88;;;19.50;96.70;;;;;;5077477;28;20073;-72
2023/03/25 11:52:00;;;;;;;7.50;1.92;;;19.40;96.70;;;;;;5077725;28;20128;-72
2023/03/25 11:54:29;;;;;;;9.88;2.33;;;19.40;96.70;;;;;;5075817;28;20135;-72
2023/03/25 11:56:57;;;;;;;10.18;2.35;;;19.50;96.70;;;;;;5077040;28;20048;-70
2023/03/25 11:59:34;;;;;;;10.63;2.17;;;19.50;96.70;;;;;;5083060;28;20046;-72
2023/03/25 12:02:20;;;;;;;9.65;2.00;;;19.50;96.70;;;;;;5102404;28;20035;-69
2023/03/25 12:04:57;;;;;;;8.98;2.35;;;19.50;96.70;;;;;;5089038;28;20103;-71
2023/03/25 12:07:25;;;;;;;12.68;2.30;;;19.50;96.70;;;;;;5079819;28;20094;-70
2023/03/25 12:09:55;;;;;;;11.70;2.58;;;19.80;96.70;;;;;;5083980;28;20039;-70
2023/03/25 12:12:41;;;;;;;9.10;2.17;;;19.80;96.70;;;;;;5092630;28;20051;-70
2023/03/25 12:15:32;;;;;;;9.98;2.38;;;19.60;96.70;;;;;;5100231;28;20038;-71
2023/03/25 12:18:14;;;;;;;11.48;2.08;;;19.60;96.70;;;;;;5065324;28;20079;-70
2023/03/25 12:20:55;;;;;;;7.72;1.98;;;19.60;96.70;;;;;;5076431;28;20066;-70
2023/03/25 12:23:34;;;;;;;12.23;2.15;;;19.50;96.70;;;;;;5076514;28;20048;-71
2023/03/25 12:26:12;;;;;;;15.50;2.75;;;19.40;96.70;;;;;;5078919;28;20043;-71
2023/03/25 12:28:58;;;;;;;11.48;2.20;;;19.60;96.70;;;;;;5077718;28;20817;-70
2023/03/25 12:31:41;;;;;;;8.30;1.87;;;19.80;96.70;;;;;;5076620;28;20588;-71
2023/03/25 12:34:27;;;;;;;8.23;2.10;;;19.70;96.70;;;;;;5076002;28;20280;-71
2023/03/25 12:37:04;;;;;;;5.78;2.10;;;19.60;96.70;;;;;;5077976;28;20563;-71
2023/03/25 12:39:53;;;;;;;12.93;1.98;;;19.50;96.70;;;;;;5077221;28;20151;-71
2023/03/25 12:42:34;;;;;;;9.80;2.42;;;19.30;96.70;;;;;;5078411;28;20052;-70
2023/03/25 12:45:20;;;;;;;15.98;2.70;;;19.50;96.70;;;;;;5087275;28;20044;-71
2023/03/25 12:47:56;;;;;;;9.80;1.60;;;19.60;96.70;;;;;;5087573;28;20793;-70
2023/03/25 12:50:48;;;;;;;8.23;2.30;;;19.80;96.70;;;;;;5103736;28;20566;-71
2023/03/25 12:53:35;;;;;;;10.25;1.90;;;19.70;96.70;;;;;;5082477;28;20040;-70
2023/03/25 12:56:15;;;;;;;6.70;1.92;;;19.60;96.70;;;;;;5070249;28;20332;-71
2023/03/25 12:59:13;;;;;;;9.52;2.20;;;19.60;96.70;;;;;;5101490;28;20039;-70
2023/03/25 13:01:52;;;;;;;8.25;1.60;;;19.70;96.70;;;;;;5081911;28;20078;-72
2023/03/25 13:04:34;;;;;;;11.27;2.35;;;19.70;96.70;;;;;;5101770;28;20597;-73
2023/03/25 13:07:09;;;;;;;13.00;2.00;;;19.70;96.70;;;;;;5074277;28;20327;-74
2023/03/25 13:09:52;;;;;;;7.43;2.03;;;19.60;96.70;;;;;;5078736;28;20125;-72